sensor_id;sensor_type;location;lat;lon;timestamp;P1;durP1;ratioP1;P2;durP2;ratioP2
32200;SDS011;18701;45.588;5.288;2023-03-01T00:01:58;18.85;;;12.15;;
32200;SDS011;18701;45.588;5.288;2023-03-01T00:04:23;18.25;;;12.80;;
32200;SDS011;18701;45.588;5.288;2023-03-01T00:06:49;19.50;;;12.88;;
32200;SDS011;18701;45.588;5.288;2023-03-01T00:09:15;19.20;;;12.57;;
32200;SDS011;18701;45.588;5.288;2023-03-01T00:11:41;17.92;;;12.35;;
32200;SDS011;18701;45.588;5.288;2023-03-01T00:14:06;21.20;;;12.57;;
32200;SDS011;18701;45.588;5.288;2023-03-01T00:16:34;19.50;;;12.65;;
32200;SDS011;18701;45.588;5.288;2023-03-01T00:19:04;22.80;;;12.35;;
32200;SDS011;18701;45.588;5.288;2023-03-01T00:21:31;17.70;;;12.70;;
32200;SDS011;18701;45.588;5.288;2023-03-01T00:23:58;16.15;;;12.02;;
32200;SDS011;18701;45.588;5.288;2023-03-01T00:26:25;22.20;;;12.88;;
32200;SDS011;18701;45.588;5.288;2023-03-01T00:28:51;19.42;;;12.80;;
32200;SDS011;18701;45.588;5.288;2023-03-01T00:31:19;17.00;;;11.07;;
32200;SDS011;18701;45.588;5.288;2023-03-01T00:33:46;20.20;;;13.25;;
32200;SDS011;18701;45.588;5.288;2023-03-01T00:36:12;25.00;;;12.82;;
32200;SDS011;18701;45.588;5.288;2023-03-01T00:38:40;16.73;;;12.77;;
32200;SDS011;18701;45.588;5.288;2023-03-01T00:41:09;21.60;;;12.20;;
32200;SDS011;18701;45.588;5.288;2023-03-01T00:43:37;15.80;;;11.07;;
32200;SDS011;18701;45.588;5.288;2023-03-01T00:46:04;19.13;;;13.52;;
32200;SDS011;18701;45.588;5.288;2023-03-01T00:48:31;18.98;;;12.52;;
32200;SDS011;18701;45.588;5.288;2023-03-01T00:50:57;17.35;;;12.48;;
32200;SDS011;18701;45.588;5.288;2023-03-01T00:53:28;18.83;;;13.43;;
32200;SDS011;18701;45.588;5.288;2023-03-01T00:55:56;18.85;;;12.68;;
32200;SDS011;18701;45.588;5.288;2023-03-01T00:58:22;20.08;;;11.50;;
32200;SDS011;18701;45.588;5.288;2023-03-01T01:00:47;17.05;;;12.00;;
32200;SDS011;18701;45.588;5.288;2023-03-01T01:03:13;18.55;;;12.63;;
32200;SDS011;18701;45.588;5.288;2023-03-01T01:05:39;18.27;;;12.70;;
32200;SDS011;18701;45.588;5.288;2023-03-01T01:08:04;16.58;;;12.50;;
32200;SDS011;18701;45.588;5.288;2023-03-01T01:10:30;19.13;;;12.38;;
32200;SDS011;18701;45.588;5.288;2023-03-01T01:12:58;22.33;;;13.30;;
32200;SDS011;18701;45.588;5.288;2023-03-01T01:15:23;20.20;;;13.35;;
32200;SDS011;18701;45.588;5.288;2023-03-01T01:17:49;19.58;;;12.48;;
32200;SDS011;18701;45.588;5.288;2023-03-01T01:20:15;18.23;;;12.25;;
32200;SDS011;18701;45.588;5.288;2023-03-01T01:22:41;20.50;;;13.45;;
32200;SDS011;18701;45.588;5.288;2023-03-01T01:25:06;20.08;;;12.63;;
32200;SDS011;18701;45.588;5.288;2023-03-01T01:27:32;20.50;;;12.90;;
32200;SDS011;18701;45.588;5.288;2023-03-01T01:29:58;19.77;;;13.40;;
32200;SDS011;18701;45.588;5.288;2023-03-01T01:32:23;18.67;;;12.43;;
32200;SDS011;18701;45.588;5.288;2023-03-01T01:34:49;27.73;;;13.10;;
32200;SDS011;18701;45.588;5.288;2023-03-01T01:37:15;21.30;;;13.90;;
32200;SDS011;18701;45.588;5.288;2023-03-01T01:39:40;20.17;;;13.70;;
32200;SDS011;18701;45.588;5.288;2023-03-01T01:42:08;23.05;;;13.10;;
32200;SDS011;18701;45.588;5.288;2023-03-01T01:44:40;18.13;;;12.00;;
32200;SDS011;18701;45.588;5.288;2023-03-01T01:47:11;18.88;;;12.43;;
32200;SDS011;18701;45.588;5.288;2023-03-01T01:49:48;18.05;;;10.98;;
32200;SDS011;18701;45.588;5.288;2023-03-01T01:52:24;18.13;;;12.30;;
32200;SDS011;18701;45.588;5.288;2023-03-01T01:55:00;20.75;;;13.70;;
32200;SDS011;18701;45.588;5.288;2023-03-01T01:57:37;21.05;;;13.20;;
32200;SDS011;18701;45.588;5.288;2023-03-01T02:00:11;19.98;;;13.50;;
32200;SDS011;18701;45.588;5.288;2023-03-01T02:02:42;18.58;;;11.73;;
32200;SDS011;18701;45.588;5.288;2023-03-01T02:05:11;20.10;;;13.43;;
32200;SDS011;18701;45.588;5.288;2023-03-01T02:07:44;19.70;;;13.55;;
32200;SDS011;18701;45.588;5.288;2023-03-01T02:10:11;22.48;;;12.55;;
32200;SDS011;18701;45.588;5.288;2023-03-01T02:12:37;19.27;;;13.15;;
32200;SDS011;18701;45.588;5.288;2023-03-01T02:15:04;19.70;;;12.70;;
32200;SDS011;18701;45.588;5.288;2023-03-01T02:17:30;16.35;;;12.43;;
32200;SDS011;18701;45.588;5.288;2023-03-01T02:22:32;20.20;;;13.23;;
32200;SDS011;18701;45.588;5.288;2023-03-01T02:27:42;21.30;;;12.90;;
32200;SDS011;18701;45.588;5.288;2023-03-01T02:30:49;21.40;;;11.73;;
32200;SDS011;18701;45.588;5.288;2023-03-01T02:36:01;21.40;;;12.15;;
32200;SDS011;18701;45.588;5.288;2023-03-01T02:38:33;23.27;;;13.27;;
32200;SDS011;18701;45.588;5.288;2023-03-01T02:40:58;25.17;;;14.48;;
32200;SDS011;18701;45.588;5.288;2023-03-01T02:43:27;19.83;;;12.80;;
32200;SDS011;18701;45.588;5.288;2023-03-01T02:45:57;18.17;;;12.80;;
32200;SDS011;18701;45.588;5.288;2023-03-01T02:48:24;21.70;;;12.85;;
32200;SDS011;18701;45.588;5.288;2023-03-01T02:51:04;21.67;;;12.88;;
32200;SDS011;18701;45.588;5.288;2023-03-01T02:56:33;20.23;;;13.23;;
32200;SDS011;18701;45.588;5.288;2023-03-01T02:58:59;23.35;;;13.63;;
32200;SDS011;18701;45.588;5.288;2023-03-01T03:01:25;22.27;;;13.98;;
32200;SDS011;18701;45.588;5.288;2023-03-01T03:04:01;21.95;;;13.32;;
32200;SDS011;18701;45.588;5.288;2023-03-01T03:06:34;24.77;;;13.52;;
32200;SDS011;18701;45.588;5.288;2023-03-01T03:09:00;24.27;;;13.65;;
32200;SDS011;18701;45.588;5.288;2023-03-01T03:11:27;21.08;;;13.23;;
32200;SDS011;18701;45.588;5.288;2023-03-01T03:13:52;23.13;;;14.20;;
32200;SDS011;18701;45.588;5.288;2023-03-01T03:16:19;21.38;;;13.32;;
32200;SDS011;18701;45.588;5.288;2023-03-01T03:18:45;19.60;;;13.40;;
32200;SDS011;18701;45.588;5.288;2023-03-01T03:21:11;20.48;;;12.93;;
32200;SDS011;18701;45.588;5.288;2023-03-01T03:23:38;22.38;;;14.55;;
32200;SDS011;18701;45.588;5.288;2023-03-01T03:26:04;22.08;;;14.15;;
32200;SDS011;18701;45.588;5.288;2023-03-01T03:28:31;23.15;;;14.10;;
32200;SDS011;18701;45.588;5.288;2023-03-01T03:30:58;20.67;;;14.02;;
32200;SDS011;18701;45.588;5.288;2023-03-01T03:33:28;19.42;;;13.43;;
32200;SDS011;18701;45.588;5.288;2023-03-01T03:35:57;20.67;;;13.45;;
32200;SDS011;18701;45.588;5.288;2023-03-01T03:38:23;27.58;;;14.45;;
32200;SDS011;18701;45.588;5.288;2023-03-01T03:40:54;20.38;;;13.32;;
32200;SDS011;18701;45.588;5.288;2023-03-01T03:43:32;18.27;;;13.57;;
32200;SDS011;18701;45.588;5.288;2023-03-01T03:45:59;24.02;;;14.30;;
32200;SDS011;18701;45.588;5.288;2023-03-01T03:48:25;22.77;;;13.98;;
32200;SDS011;18701;45.588;5.288;2023-03-01T03:50:52;20.67;;;13.95;;
32200;SDS011;18701;45.588;5.288;2023-03-01T03:53:20;19.15;;;13.77;;
32200;SDS011;18701;45.588;5.288;2023-03-01T03:55:48;21.83;;;13.25;;
32200;SDS011;18701;45.588;5.288;2023-03-01T03:58:14;22.05;;;14.05;;
32200;SDS011;18701;45.588;5.288;2023-03-01T04:00:43;21.67;;;13.68;;
32200;SDS011;18701;45.588;5.288;2023-03-01T04:03:11;30.45;;;15.18;;
32200;SDS011;18701;45.588;5.288;2023-03-01T04:05:38;23.83;;;14.82;;
32200;SDS011;18701;45.588;5.288;2023-03-01T04:08:04;20.50;;;13.35;;
32200;SDS011;18701;45.588;5.288;2023-03-01T04:10:44;23.70;;;14.52;;
32200;SDS011;18701;45.588;5.288;2023-03-01T04:13:13;22.27;;;13.73;;
32200;SDS011;18701;45.588;5.288;2023-03-01T04:15:40;22.70;;;14.38;;
32200;SDS011;18701;45.588;5.288;2023-03-01T04:18:08;22.15;;;13.75;;
32200;SDS011;18701;45.588;5.288;2023-03-01T04:20:36;19.60;;;13.68;;
32200;SDS011;18701;45.588;5.288;2023-03-01T04:25:48;22.67;;;13.75;;
32200;SDS011;18701;45.588;5.288;2023-03-01T04:28:29;25.58;;;14.18;;
32200;SDS011;18701;45.588;5.288;2023-03-01T04:31:05;20.45;;;13.25;;
32200;SDS011;18701;45.588;5.288;2023-03-01T04:34:11;23.60;;;14.27;;
32200;SDS011;18701;45.588;5.288;2023-03-01T04:36:30;22.13;;;14.65;;
32200;SDS011;18701;45.588;5.288;2023-03-01T04:38:55;21.80;;;13.52;;
32200;SDS011;18701;45.588;5.288;2023-03-01T04:41:22;21.25;;;13.15;;
32200;SDS011;18701;45.588;5.288;2023-03-01T04:43:49;20.95;;;15.10;;
32200;SDS011;18701;45.588;5.288;2023-03-01T04:46:16;18.83;;;13.70;;
32200;SDS011;18701;45.588;5.288;2023-03-01T04:48:43;20.63;;;13.70;;
32200;SDS011;18701;45.588;5.288;2023-03-01T04:51:09;25.45;;;14.65;;
32200;SDS011;18701;45.588;5.288;2023-03-01T04:53:38;26.02;;;14.23;;
32200;SDS011;18701;45.588;5.288;2023-03-01T04:56:05;24.48;;;15.05;;
32200;SDS011;18701;45.588;5.288;2023-03-01T04:58:31;24.23;;;14.57;;
32200;SDS011;18701;45.588;5.288;2023-03-01T05:00:57;25.35;;;14.95;;
32200;SDS011;18701;45.588;5.288;2023-03-01T05:03:23;24.70;;;15.05;;
32200;SDS011;18701;45.588;5.288;2023-03-01T05:05:50;24.13;;;16.05;;
32200;SDS011;18701;45.588;5.288;2023-03-01T05:08:17;23.58;;;15.57;;
32200;SDS011;18701;45.588;5.288;2023-03-01T05:10:50;25.55;;;14.93;;
32200;SDS011;18701;45.588;5.288;2023-03-01T05:13:17;21.38;;;14.95;;
32200;SDS011;18701;45.588;5.288;2023-03-01T05:16:00;21.20;;;13.68;;
32200;SDS011;18701;45.588;5.288;2023-03-01T05:18:27;30.70;;;15.93;;
32200;SDS011;18701;45.588;5.288;2023-03-01T05:20:55;22.42;;;14.57;;
32200;SDS011;18701;45.588;5.288;2023-03-01T05:23:28;22.65;;;13.90;;
32200;SDS011;18701;45.588;5.288;2023-03-01T05:25:57;21.48;;;14.75;;
32200;SDS011;18701;45.588;5.288;2023-03-01T05:28:24;23.10;;;16.38;;
32200;SDS011;18701;45.588;5.288;2023-03-01T05:30:51;25.30;;;15.38;;
32200;SDS011;18701;45.588;5.288;2023-03-01T05:33:17;23.33;;;14.88;;
32200;SDS011;18701;45.588;5.288;2023-03-01T05:35:43;24.45;;;15.27;;
32200;SDS011;18701;45.588;5.288;2023-03-01T05:38:12;24.63;;;14.50;;
32200;SDS011;18701;45.588;5.288;2023-03-01T05:40:40;23.27;;;15.32;;
32200;SDS011;18701;45.588;5.288;2023-03-01T05:43:08;24.85;;;15.50;;
32200;SDS011;18701;45.588;5.288;2023-03-01T05:45:35;24.38;;;15.93;;
32200;SDS011;18701;45.588;5.288;2023-03-01T05:48:03;21.83;;;14.07;;
32200;SDS011;18701;45.588;5.288;2023-03-01T05:50:31;24.55;;;15.80;;
32200;SDS011;18701;45.588;5.288;2023-03-01T05:53:00;23.05;;;15.50;;
32200;SDS011;18701;45.588;5.288;2023-03-01T05:55:28;24.45;;;14.93;;
32200;SDS011;18701;45.588;5.288;2023-03-01T05:57:57;24.05;;;16.33;;
32200;SDS011;18701;45.588;5.288;2023-03-01T06:00:24;25.65;;;16.02;;
32200;SDS011;18701;45.588;5.288;2023-03-01T06:02:50;22.17;;;14.80;;
32200;SDS011;18701;45.588;5.288;2023-03-01T06:05:19;26.15;;;16.00;;
32200;SDS011;18701;45.588;5.288;2023-03-01T06:07:44;23.80;;;14.68;;
32200;SDS011;18701;45.588;5.288;2023-03-01T06:10:10;25.75;;;16.33;;
32200;SDS011;18701;45.588;5.288;2023-03-01T06:12:37;26.48;;;16.60;;
32200;SDS011;18701;45.588;5.288;2023-03-01T06:15:04;27.67;;;16.88;;
32200;SDS011;18701;45.588;5.288;2023-03-01T06:17:32;24.85;;;15.52;;
32200;SDS011;18701;45.588;5.288;2023-03-01T06:20:05;25.83;;;16.30;;
32200;SDS011;18701;45.588;5.288;2023-03-01T06:22:33;27.63;;;15.55;;
32200;SDS011;18701;45.588;5.288;2023-03-01T06:24:59;34.90;;;16.85;;
32200;SDS011;18701;45.588;5.288;2023-03-01T06:27:25;32.70;;;15.98;;
32200;SDS011;18701;45.588;5.288;2023-03-01T06:29:50;29.95;;;16.88;;
32200;SDS011;18701;45.588;5.288;2023-03-01T06:32:16;25.83;;;15.40;;
32200;SDS011;18701;45.588;5.288;2023-03-01T06:34:42;28.55;;;16.38;;
32200;SDS011;18701;45.588;5.288;2023-03-01T06:37:07;30.27;;;16.85;;
32200;SDS011;18701;45.588;5.288;2023-03-01T06:39:33;27.40;;;16.50;;
32200;SDS011;18701;45.588;5.288;2023-03-01T06:41:59;26.08;;;16.33;;
32200;SDS011;18701;45.588;5.288;2023-03-01T06:44:25;24.23;;;15.70;;
32200;SDS011;18701;45.588;5.288;2023-03-01T06:46:51;26.20;;;16.48;;
32200;SDS011;18701;45.588;5.288;2023-03-01T06:49:17;25.33;;;15.20;;
32200;SDS011;18701;45.588;5.288;2023-03-01T06:51:43;25.83;;;16.17;;
32200;SDS011;18701;45.588;5.288;2023-03-01T06:54:09;27.73;;;16.80;;
32200;SDS011;18701;45.588;5.288;2023-03-01T06:56:35;28.92;;;16.40;;
32200;SDS011;18701;45.588;5.288;2023-03-01T06:59:01;24.80;;;16.25;;
32200;SDS011;18701;45.588;5.288;2023-03-01T07:01:27;28.33;;;17.58;;
32200;SDS011;18701;45.588;5.288;2023-03-01T07:03:54;25.05;;;16.80;;
32200;SDS011;18701;45.588;5.288;2023-03-01T07:06:20;29.80;;;17.05;;
32200;SDS011;18701;45.588;5.288;2023-03-01T07:08:46;24.92;;;16.55;;
32200;SDS011;18701;45.588;5.288;2023-03-01T07:11:11;26.70;;;17.20;;
32200;SDS011;18701;45.588;5.288;2023-03-01T07:13:37;25.70;;;17.58;;
32200;SDS011;18701;45.588;5.288;2023-03-01T07:16:03;26.83;;;16.70;;
32200;SDS011;18701;45.588;5.288;2023-03-01T07:18:29;28.13;;;17.42;;
32200;SDS011;18701;45.588;5.288;2023-03-01T07:20:54;28.80;;;16.90;;
32200;SDS011;18701;45.588;5.288;2023-03-01T07:23:20;28.52;;;16.50;;
32200;SDS011;18701;45.588;5.288;2023-03-01T07:25:53;29.45;;;17.05;;
32200;SDS011;18701;45.588;5.288;2023-03-01T07:28:19;28.40;;;17.30;;
32200;SDS011;18701;45.588;5.288;2023-03-01T07:30:45;31.00;;;17.77;;
32200;SDS011;18701;45.588;5.288;2023-03-01T07:33:11;30.38;;;17.75;;
32200;SDS011;18701;45.588;5.288;2023-03-01T07:35:36;34.85;;;17.55;;
32200;SDS011;18701;45.588;5.288;2023-03-01T07:38:02;32.85;;;17.90;;
32200;SDS011;18701;45.588;5.288;2023-03-01T07:40:28;27.77;;;16.58;;
32200;SDS011;18701;45.588;5.288;2023-03-01T07:42:56;31.48;;;18.27;;
32200;SDS011;18701;45.588;5.288;2023-03-01T07:45:23;25.70;;;16.35;;
32200;SDS011;18701;45.588;5.288;2023-03-01T07:47:52;29.17;;;16.13;;
32200;SDS011;18701;45.588;5.288;2023-03-01T07:50:18;36.53;;;16.30;;
32200;SDS011;18701;45.588;5.288;2023-03-01T07:52:45;30.88;;;18.73;;
32200;SDS011;18701;45.588;5.288;2023-03-01T07:55:11;40.03;;;19.27;;
32200;SDS011;18701;45.588;5.288;2023-03-01T07:57:37;29.90;;;16.55;;
32200;SDS011;18701;45.588;5.288;2023-03-01T08:00:03;28.77;;;17.08;;
32200;SDS011;18701;45.588;5.288;2023-03-01T08:02:30;29.73;;;17.02;;
32200;SDS011;18701;45.588;5.288;2023-03-01T08:04:56;30.85;;;19.33;;
32200;SDS011;18701;45.588;5.288;2023-03-01T08:07:21;29.63;;;18.48;;
32200;SDS011;18701;45.588;5.288;2023-03-01T08:09:47;30.58;;;17.27;;
32200;SDS011;18701;45.588;5.288;2023-03-01T08:12:13;33.42;;;18.73;;
32200;SDS011;18701;45.588;5.288;2023-03-01T08:14:38;28.73;;;17.80;;
32200;SDS011;18701;45.588;5.288;2023-03-01T08:17:04;32.85;;;17.63;;
32200;SDS011;18701;45.588;5.288;2023-03-01T08:19:30;31.38;;;18.98;;
32200;SDS011;18701;45.588;5.288;2023-03-01T08:21:55;31.90;;;18.45;;
32200;SDS011;18701;45.588;5.288;2023-03-01T08:24:23;28.40;;;17.50;;
32200;SDS011;18701;45.588;5.288;2023-03-01T08:26:49;35.92;;;19.15;;
32200;SDS011;18701;45.588;5.288;2023-03-01T08:29:14;27.02;;;18.45;;
32200;SDS011;18701;45.588;5.288;2023-03-01T08:31:40;30.20;;;19.23;;
32200;SDS011;18701;45.588;5.288;2023-03-01T08:34:11;34.10;;;19.70;;
32200;SDS011;18701;45.588;5.288;2023-03-01T08:36:39;32.35;;;19.02;;
32200;SDS011;18701;45.588;5.288;2023-03-01T08:39:07;37.65;;;18.30;;
32200;SDS011;18701;45.588;5.288;2023-03-01T08:41:34;32.92;;;20.30;;
32200;SDS011;18701;45.588;5.288;2023-03-01T08:43:59;31.58;;;19.23;;
32200;SDS011;18701;45.588;5.288;2023-03-01T08:46:29;33.30;;;19.70;;
32200;SDS011;18701;45.588;5.288;2023-03-01T08:48:57;31.90;;;19.27;;
32200;SDS011;18701;45.588;5.288;2023-03-01T08:51:23;33.60;;;19.17;;
32200;SDS011;18701;45.588;5.288;2023-03-01T08:53:49;47.55;;;21.15;;
32200;SDS011;18701;45.588;5.288;2023-03-01T08:56:15;31.90;;;20.00;;
32200;SDS011;18701;45.588;5.288;2023-03-01T08:58:44;31.25;;;19.85;;
32200;SDS011;18701;45.588;5.288;2023-03-01T09:01:14;36.90;;;20.92;;
32200;SDS011;18701;45.588;5.288;2023-03-01T09:03:41;37.42;;;20.40;;
32200;SDS011;18701;45.588;5.288;2023-03-01T09:06:08;31.92;;;20.42;;
32200;SDS011;18701;45.588;5.288;2023-03-01T09:08:35;31.00;;;21.20;;
32200;SDS011;18701;45.588;5.288;2023-03-01T09:11:03;42.35;;;20.90;;
32200;SDS011;18701;45.588;5.288;2023-03-01T09:13:29;38.55;;;19.83;;
32200;SDS011;18701;45.588;5.288;2023-03-01T09:15:58;34.47;;;18.90;;
32200;SDS011;18701;45.588;5.288;2023-03-01T09:18:26;35.28;;;22.55;;
32200;SDS011;18701;45.588;5.288;2023-03-01T09:20:51;32.53;;;19.48;;
32200;SDS011;18701;45.588;5.288;2023-03-01T09:23:19;34.15;;;20.20;;
32200;SDS011;18701;45.588;5.288;2023-03-01T09:25:46;31.33;;;19.60;;
32200;SDS011;18701;45.588;5.288;2023-03-01T09:28:11;32.80;;;20.65;;
32200;SDS011;18701;45.588;5.288;2023-03-01T09:30:37;32.83;;;21.65;;
32200;SDS011;18701;45.588;5.288;2023-03-01T09:33:03;35.15;;;20.60;;
32200;SDS011;18701;45.588;5.288;2023-03-01T09:35:28;36.17;;;20.48;;
32200;SDS011;18701;45.588;5.288;2023-03-01T09:37:54;31.40;;;19.52;;
32200;SDS011;18701;45.588;5.288;2023-03-01T09:40:21;34.00;;;20.52;;
32200;SDS011;18701;45.588;5.288;2023-03-01T09:45:26;30.10;;;19.73;;
32200;SDS011;18701;45.588;5.288;2023-03-01T09:47:59;32.95;;;19.00;;
32200;SDS011;18701;45.588;5.288;2023-03-01T09:50:26;32.05;;;20.08;;
32200;SDS011;18701;45.588;5.288;2023-03-01T09:53:02;37.78;;;21.08;;
32200;SDS011;18701;45.588;5.288;2023-03-01T09:58:02;31.25;;;20.02;;
32200;SDS011;18701;45.588;5.288;2023-03-01T10:00:50;30.77;;;18.98;;
32200;SDS011;18701;45.588;5.288;2023-03-01T10:03:16;37.75;;;21.83;;
32200;SDS011;18701;45.588;5.288;2023-03-01T10:05:52;38.33;;;21.45;;
32200;SDS011;18701;45.588;5.288;2023-03-01T10:10:54;32.42;;;21.40;;
32200;SDS011;18701;45.588;5.288;2023-03-01T10:16:26;33.00;;;20.95;;
32200;SDS011;18701;45.588;5.288;2023-03-01T10:19:02;38.05;;;23.67;;
32200;SDS011;18701;45.588;5.288;2023-03-01T10:21:29;39.85;;;23.73;;
32200;SDS011;18701;45.588;5.288;2023-03-01T10:24:11;38.47;;;22.13;;
32200;SDS011;18701;45.588;5.288;2023-03-01T10:29:18;37.65;;;21.77;;
32200;SDS011;18701;45.588;5.288;2023-03-01T10:32:16;34.38;;;20.45;;
32200;SDS011;18701;45.588;5.288;2023-03-01T10:34:43;33.40;;;21.05;;
32200;SDS011;18701;45.588;5.288;2023-03-01T10:37:18;35.35;;;21.48;;
32200;SDS011;18701;45.588;5.288;2023-03-01T10:39:57;39.35;;;22.98;;
32200;SDS011;18701;45.588;5.288;2023-03-01T10:45:47;36.40;;;21.75;;
32200;SDS011;18701;45.588;5.288;2023-03-01T10:48:03;32.38;;;21.42;;
32200;SDS011;18701;45.588;5.288;2023-03-01T10:50:45;42.28;;;21.98;;
32200;SDS011;18701;45.588;5.288;2023-03-01T10:53:29;40.88;;;22.80;;
32200;SDS011;18701;45.588;5.288;2023-03-01T10:56:06;35.60;;;23.02;;
32200;SDS011;18701;45.588;5.288;2023-03-01T10:58:35;34.58;;;21.65;;
32200;SDS011;18701;45.588;5.288;2023-03-01T11:01:03;33.30;;;21.67;;
32200;SDS011;18701;45.588;5.288;2023-03-01T11:03:41;33.50;;;22.05;;
32200;SDS011;18701;45.588;5.288;2023-03-01T11:11:05;30.73;;;20.40;;
32200;SDS011;18701;45.588;5.288;2023-03-01T11:18:39;33.97;;;19.98;;
32200;SDS011;18701;45.588;5.288;2023-03-01T11:21:05;35.30;;;21.58;;
32200;SDS011;18701;45.588;5.288;2023-03-01T11:23:33;33.70;;;22.23;;
32200;SDS011;18701;45.588;5.288;2023-03-01T11:26:02;37.00;;;21.45;;
32200;SDS011;18701;45.588;5.288;2023-03-01T11:28:32;39.60;;;21.67;;
32200;SDS011;18701;45.588;5.288;2023-03-01T11:31:05;30.98;;;21.10;;
32200;SDS011;18701;45.588;5.288;2023-03-01T11:38:44;32.90;;;21.20;;
32200;SDS011;18701;45.588;5.288;2023-03-01T11:41:18;41.25;;;22.60;;
32200;SDS011;18701;45.588;5.288;2023-03-01T11:46:52;35.42;;;22.17;;
32200;SDS011;18701;45.588;5.288;2023-03-01T11:49:32;35.65;;;23.35;;
32200;SDS011;18701;45.588;5.288;2023-03-01T12:03:25;34.60;;;21.73;;
32200;SDS011;18701;45.588;5.288;2023-03-01T12:37:07;36.45;;;21.83;;
32200;SDS011;18701;45.588;5.288;2023-03-01T12:43:02;37.90;;;23.55;;
32200;SDS011;18701;45.588;5.288;2023-03-01T12:51:23;39.45;;;22.73;;
32200;SDS011;18701;45.588;5.288;2023-03-01T12:53:50;37.60;;;23.20;;
32200;SDS011;18701;45.588;5.288;2023-03-01T12:56:31;39.05;;;23.35;;
32200;SDS011;18701;45.588;5.288;2023-03-01T13:08:05;42.05;;;23.73;;
32200;SDS011;18701;45.588;5.288;2023-03-01T13:10:39;34.00;;;22.23;;
32200;SDS011;18701;45.588;5.288;2023-03-01T13:13:21;39.70;;;21.50;;
32200;SDS011;18701;45.588;5.288;2023-03-01T13:15:49;35.90;;;22.98;;
32200;SDS011;18701;45.588;5.288;2023-03-01T13:20:54;43.20;;;24.77;;
32200;SDS011;18701;45.588;5.288;2023-03-01T13:30:59;35.17;;;22.73;;
32200;SDS011;18701;45.588;5.288;2023-03-01T13:35:51;33.58;;;23.15;;
32200;SDS011;18701;45.588;5.288;2023-03-01T13:41:04;40.38;;;24.83;;
32200;SDS011;18701;45.588;5.288;2023-03-01T13:45:57;35.30;;;23.40;;
32200;SDS011;18701;45.588;5.288;2023-03-01T13:48:25;35.22;;;22.88;;
32200;SDS011;18701;45.588;5.288;2023-03-01T13:51:05;38.15;;;24.88;;
32200;SDS011;18701;45.588;5.288;2023-03-01T13:53:34;37.58;;;24.40;;
32200;SDS011;18701;45.588;5.288;2023-03-01T13:56:03;35.60;;;23.40;;
32200;SDS011;18701;45.588;5.288;2023-03-01T13:58:48;40.28;;;25.95;;
32200;SDS011;18701;45.588;5.288;2023-03-01T14:01:23;36.03;;;23.77;;
32200;SDS011;18701;45.588;5.288;2023-03-01T14:03:51;36.10;;;23.83;;
32200;SDS011;18701;45.588;5.288;2023-03-01T14:06:22;36.92;;;22.70;;
32200;SDS011;18701;45.588;5.288;2023-03-01T14:08:50;35.78;;;23.13;;
32200;SDS011;18701;45.588;5.288;2023-03-01T14:19:45;35.42;;;22.88;;
32200;SDS011;18701;45.588;5.288;2023-03-01T14:22:20;35.15;;;23.73;;
32200;SDS011;18701;45.588;5.288;2023-03-01T14:27:50;35.08;;;23.42;;
32200;SDS011;18701;45.588;5.288;2023-03-01T14:30:32;38.67;;;24.80;;
32200;SDS011;18701;45.588;5.288;2023-03-01T14:33:02;34.40;;;23.40;;
32200;SDS011;18701;45.588;5.288;2023-03-01T14:35:31;38.70;;;25.80;;
32200;SDS011;18701;45.588;5.288;2023-03-01T14:38:00;35.15;;;23.42;;
32200;SDS011;18701;45.588;5.288;2023-03-01T14:40:30;33.72;;;23.45;;
32200;SDS011;18701;45.588;5.288;2023-03-01T14:42:59;41.88;;;26.88;;
32200;SDS011;18701;45.588;5.288;2023-03-01T14:45:27;39.45;;;24.13;;
32200;SDS011;18701;45.588;5.288;2023-03-01T14:47:55;36.88;;;23.77;;
32200;SDS011;18701;45.588;5.288;2023-03-01T14:52:57;41.28;;;25.65;;
32200;SDS011;18701;45.588;5.288;2023-03-01T14:55:27;40.28;;;24.63;;
32200;SDS011;18701;45.588;5.288;2023-03-01T14:57:59;42.92;;;24.60;;
32200;SDS011;18701;45.588;5.288;2023-03-01T15:00:30;38.35;;;24.08;;
32200;SDS011;18701;45.588;5.288;2023-03-01T15:03:00;34.47;;;24.02;;
32200;SDS011;18701;45.588;5.288;2023-03-01T15:05:34;37.65;;;23.98;;
32200;SDS011;18701;45.588;5.288;2023-03-01T15:08:02;34.55;;;23.85;;
32200;SDS011;18701;45.588;5.288;2023-03-01T15:10:31;39.33;;;25.77;;
32200;SDS011;18701;45.588;5.288;2023-03-01T15:13:21;42.92;;;24.85;;
32200;SDS011;18701;45.588;5.288;2023-03-01T15:15:51;40.45;;;26.10;;
32200;SDS011;18701;45.588;5.288;2023-03-01T15:18:26;40.05;;;24.55;;
32200;SDS011;18701;45.588;5.288;2023-03-01T15:20:54;38.60;;;24.80;;
32200;SDS011;18701;45.588;5.288;2023-03-01T15:23:27;37.22;;;24.17;;
32200;SDS011;18701;45.588;5.288;2023-03-01T15:25:55;36.38;;;24.05;;
32200;SDS011;18701;45.588;5.288;2023-03-01T15:28:22;38.67;;;24.33;;
32200;SDS011;18701;45.588;5.288;2023-03-01T15:30:58;37.70;;;23.30;;
32200;SDS011;18701;45.588;5.288;2023-03-01T15:33:33;37.38;;;24.25;;
32200;SDS011;18701;45.588;5.288;2023-03-01T15:36:29;35.70;;;23.02;;
32200;SDS011;18701;45.588;5.288;2023-03-01T15:39:02;36.17;;;24.13;;
32200;SDS011;18701;45.588;5.288;2023-03-01T15:43:59;36.63;;;25.05;;
32200;SDS011;18701;45.588;5.288;2023-03-01T15:46:30;35.10;;;23.33;;
32200;SDS011;18701;45.588;5.288;2023-03-01T15:49:04;37.70;;;25.27;;
32200;SDS011;18701;45.588;5.288;2023-03-01T15:51:49;40.03;;;25.50;;
32200;SDS011;18701;45.588;5.288;2023-03-01T15:54:19;38.25;;;24.92;;
32200;SDS011;18701;45.588;5.288;2023-03-01T15:56:47;37.60;;;25.17;;
32200;SDS011;18701;45.588;5.288;2023-03-01T15:59:13;42.72;;;23.63;;
32200;SDS011;18701;45.588;5.288;2023-03-01T16:01:39;37.35;;;24.02;;
32200;SDS011;18701;45.588;5.288;2023-03-01T16:04:05;40.95;;;25.77;;
32200;SDS011;18701;45.588;5.288;2023-03-01T16:06:30;41.20;;;26.30;;
32200;SDS011;18701;45.588;5.288;2023-03-01T16:08:56;39.63;;;25.50;;
32200;SDS011;18701;45.588;5.288;2023-03-01T16:11:22;40.38;;;25.02;;
32200;SDS011;18701;45.588;5.288;2023-03-01T16:13:47;37.42;;;23.63;;
32200;SDS011;18701;45.588;5.288;2023-03-01T16:16:15;37.03;;;24.30;;
32200;SDS011;18701;45.588;5.288;2023-03-01T16:18:47;41.53;;;25.20;;
32200;SDS011;18701;45.588;5.288;2023-03-01T16:21:33;36.25;;;24.92;;
32200;SDS011;18701;45.588;5.288;2023-03-01T16:23:58;37.22;;;23.92;;
32200;SDS011;18701;45.588;5.288;2023-03-01T16:26:24;45.10;;;26.85;;
32200;SDS011;18701;45.588;5.288;2023-03-01T16:28:50;37.10;;;25.38;;
32200;SDS011;18701;45.588;5.288;2023-03-01T16:31:19;35.72;;;23.45;;
32200;SDS011;18701;45.588;5.288;2023-03-01T16:33:45;36.42;;;24.40;;
32200;SDS011;18701;45.588;5.288;2023-03-01T16:36:18;35.22;;;24.20;;
32200;SDS011;18701;45.588;5.288;2023-03-01T16:38:44;39.40;;;24.75;;
32200;SDS011;18701;45.588;5.288;2023-03-01T16:41:14;39.72;;;25.80;;
32200;SDS011;18701;45.588;5.288;2023-03-01T16:43:41;36.55;;;25.00;;
32200;SDS011;18701;45.588;5.288;2023-03-01T16:46:14;39.15;;;25.55;;
32200;SDS011;18701;45.588;5.288;2023-03-01T16:48:42;37.25;;;24.77;;
32200;SDS011;18701;45.588;5.288;2023-03-01T16:51:08;38.38;;;26.40;;
32200;SDS011;18701;45.588;5.288;2023-03-01T16:53:34;42.13;;;25.67;;
32200;SDS011;18701;45.588;5.288;2023-03-01T16:56:01;37.40;;;24.40;;